London Township, Michigan
Current Conditions -  °F | °C
As of 10:53 AM on Thursday 18 Dec 2014 (Local Time) from KARB Reporting Station
Overcast Overcast  
Wind Chill: 22°   Ceiling: 1100
Heat Index: 30°   Visibility: 7mi
Dew Point: 26°   Wind: 8mph
Humidity: 85%   Direction: 280°W
Pressure: 30.21"   Gusts: NA
Location:  42.0828°N, 83.683°W
Report Text: KARB 181553Z AUTO 28007KT 7SM OVC011 M01/M03 A3021 RMK AO2 CIG 009V013 SLP240 T10111033 $
Loading
Personal Weather Stations






























Interactive Weather Map New forecast layout! Learn more

10-Day Weather Forecast

Advertisements
Track Severe Weather on mobile